createdAt,value
2017-12-05T00:00:20.747Z,7.00
2017-12-05T00:02:48.972Z,7.00
2017-12-05T00:05:16.426Z,7.00
2017-12-05T00:07:43.900Z,6.90
2017-12-05T00:10:12.112Z,6.90
2017-12-05T00:12:39.568Z,6.90
2017-12-05T00:15:07.127Z,6.90
2017-12-05T00:17:34.585Z,6.90
2017-12-05T00:20:02.824Z,7.00
2017-12-05T00:22:30.272Z,6.90
2017-12-05T00:24:57.720Z,6.90
2017-12-05T00:27:25.948Z,6.90
2017-12-05T00:29:53.401Z,6.90
2017-12-05T00:32:20.864Z,6.90
2017-12-05T00:34:49.123Z,6.90
2017-12-05T00:37:16.664Z,6.90
2017-12-05T00:39:44.147Z,7.00
2017-12-05T00:42:11.595Z,7.00
2017-12-05T00:44:39.048Z,6.90
2017-12-05T00:47:06.500Z,6.90
2017-12-05T00:49:34.737Z,6.90
2017-12-05T00:52:02.204Z,6.90
2017-12-05T00:54:29.652Z,6.90
2017-12-05T00:56:57.208Z,6.90
2017-12-05T00:59:24.675Z,6.90
2017-12-05T01:01:52.888Z,6.80
2017-12-05T01:04:20.352Z,6.80
2017-12-05T01:06:47.899Z,6.80
2017-12-05T01:09:16.122Z,6.90
2017-12-05T01:11:44.340Z,6.90
2017-12-05T01:14:12.568Z,6.90
2017-12-05T01:16:40.025Z,6.80
2017-12-05T01:19:08.261Z,6.90
2017-12-05T01:21:35.715Z,6.90
2017-12-05T01:24:03.163Z,6.80
2017-12-05T01:26:31.417Z,6.90
2017-12-05T01:28:58.893Z,6.90
2017-12-05T01:31:26.343Z,6.90
2017-12-05T01:33:53.792Z,6.90
2017-12-05T01:36:21.244Z,6.90
2017-12-05T01:38:48.784Z,6.80
2017-12-05T01:41:16.252Z,6.90
2017-12-05T01:43:43.704Z,6.80
2017-12-05T01:46:11.152Z,6.80
2017-12-05T01:48:38.613Z,6.80
2017-12-05T01:51:06.823Z,6.80
2017-12-05T01:53:34.289Z,6.80
2017-12-05T01:56:01.744Z,6.80
2017-12-05T01:58:29.988Z,6.70
2017-12-05T02:00:57.448Z,6.70
2017-12-05T02:03:25.704Z,6.80
2017-12-05T02:05:53.184Z,6.80
2017-12-05T02:08:20.632Z,6.70
2017-12-05T02:10:48.084Z,6.80
2017-12-05T02:13:15.549Z,6.70
2017-12-05T02:15:42.996Z,6.70
2017-12-05T02:18:10.460Z,6.60
2017-12-05T02:20:38.680Z,6.60
2017-12-05T02:23:06.156Z,6.50
2017-12-05T02:25:34.372Z,6.50
2017-12-05T02:28:02.639Z,6.50
2017-12-05T02:30:30.120Z,6.50
2017-12-05T02:32:58.373Z,6.50
2017-12-05T02:35:25.864Z,6.40
2017-12-05T02:37:53.358Z,6.50
2017-12-05T02:40:20.813Z,6.50
2017-12-05T02:42:49.037Z,6.50
2017-12-05T02:45:16.596Z,6.50
2017-12-05T02:47:44.148Z,6.50
2017-12-05T02:50:11.603Z,6.50
2017-12-05T02:52:39.832Z,6.50
2017-12-05T02:55:07.289Z,6.50
2017-12-05T02:57:34.828Z,6.50
2017-12-05T03:00:03.045Z,6.50
2017-12-05T03:02:30.500Z,6.50
2017-12-05T03:04:57.968Z,6.50
2017-12-05T03:07:25.444Z,6.40
2017-12-05T03:09:52.896Z,6.50
2017-12-05T03:12:20.352Z,6.50
2017-12-05T03:14:47.808Z,6.50
2017-12-05T03:17:15.260Z,6.50
2017-12-05T03:19:42.712Z,6.50
2017-12-05T03:22:10.264Z,6.50
2017-12-05T03:24:37.819Z,6.50
2017-12-05T03:27:06.072Z,6.50
2017-12-05T03:29:33.563Z,6.50
2017-12-05T03:32:01.057Z,6.50
2017-12-05T03:34:29.327Z,6.50
2017-12-05T03:36:57.552Z,6.50
2017-12-05T03:39:25.014Z,6.50
2017-12-05T03:41:52.460Z,6.50
2017-12-05T03:44:20.692Z,6.40
2017-12-05T03:46:48.147Z,6.40
2017-12-05T03:49:15.700Z,6.50
2017-12-05T03:51:43.152Z,6.50
2017-12-05T03:54:11.372Z,6.50
2017-12-05T03:56:38.832Z,6.40
2017-12-05T03:59:06.283Z,6.40
2017-12-05T04:01:33.756Z,6.40
2017-12-05T04:04:01.272Z,6.50
2017-12-05T04:06:29.492Z,6.50
2017-12-05T04:08:56.949Z,6.50
2017-12-05T04:11:24.401Z,6.40
2017-12-05T04:13:51.859Z,6.40
2017-12-05T04:16:19.333Z,6.40
2017-12-05T04:18:46.785Z,6.30
2017-12-05T04:21:14.231Z,6.30
2017-12-05T04:23:41.696Z,6.30
2017-12-05T04:26:09.264Z,6.30
2017-12-05T04:28:36.804Z,6.30
2017-12-05T04:31:04.252Z,6.30
2017-12-05T04:33:32.476Z,6.20
2017-12-05T04:35:59.943Z,6.20
2017-12-05T04:38:27.420Z,6.20
2017-12-05T04:40:54.872Z,6.20
2017-12-05T04:43:22.321Z,6.20
2017-12-05T04:45:49.792Z,6.10
2017-12-05T04:48:17.255Z,6.20
2017-12-05T04:50:44.797Z,6.20
2017-12-05T04:53:12.344Z,6.20
2017-12-05T04:55:39.800Z,6.20
2017-12-05T04:58:08.049Z,6.20
2017-12-05T05:00:36.316Z,6.20
2017-12-05T05:03:04.549Z,6.10
2017-12-05T05:05:32.007Z,6.10
2017-12-05T05:08:00.268Z,6.10
2017-12-05T05:10:27.805Z,6.10
2017-12-05T05:12:55.275Z,6.10
2017-12-05T05:15:22.724Z,6.10
2017-12-05T05:17:50.240Z,6.20
2017-12-05T05:20:17.696Z,6.10
2017-12-05T05:22:45.944Z,6.10
2017-12-05T05:25:14.192Z,6.10
2017-12-05T05:27:41.648Z,6.00
2017-12-05T05:30:09.868Z,6.10
2017-12-05T05:32:37.326Z,6.10
2017-12-05T05:35:04.775Z,6.10
2017-12-05T05:37:32.234Z,6.20
2017-12-05T05:40:00.448Z,6.10
2017-12-05T05:42:27.907Z,6.10
2017-12-05T05:44:55.462Z,6.10
2017-12-05T05:47:23.488Z,6.00
2017-12-05T05:49:50.954Z,6.00
2017-12-05T05:52:18.401Z,6.00
2017-12-05T05:54:45.899Z,6.00
2017-12-05T05:57:13.352Z,6.10
2017-12-05T05:59:40.828Z,6.10
2017-12-05T06:02:09.785Z,6.10
2017-12-05T06:04:37.247Z,6.10
2017-12-05T06:07:04.699Z,6.10
2017-12-05T06:09:32.928Z,6.10
2017-12-05T06:12:00.383Z,6.10
2017-12-05T06:14:27.857Z,6.10
2017-12-05T06:16:56.076Z,6.20
2017-12-05T06:19:23.540Z,6.20
2017-12-05T06:21:51.756Z,6.20
2017-12-05T06:24:19.220Z,6.20
2017-12-05T06:26:46.780Z,6.20
2017-12-05T06:29:14.237Z,6.20
2017-12-05T06:31:42.476Z,6.10
2017-12-05T06:34:09.932Z,6.10
2017-12-05T06:36:38.147Z,6.10
2017-12-05T06:39:05.720Z,6.10
2017-12-05T06:41:33.168Z,6.10
2017-12-05T06:44:01.420Z,6.10
2017-12-05T06:46:28.884Z,6.10
2017-12-05T06:48:57.096Z,6.10
2017-12-05T06:51:24.552Z,6.00
2017-12-05T06:53:52.113Z,6.10
2017-12-05T06:56:19.563Z,6.10
2017-12-05T06:58:47.817Z,6.00
2017-12-05T07:01:15.307Z,6.00
2017-12-05T07:03:42.752Z,6.00
2017-12-05T07:06:10.215Z,6.10
2017-12-05T07:08:37.677Z,6.10
2017-12-05T07:11:05.127Z,6.10
2017-12-05T07:13:33.344Z,6.10
2017-12-05T07:16:00.812Z,6.10
2017-12-05T07:18:28.263Z,6.20
2017-12-05T07:20:56.519Z,6.10
2017-12-05T07:23:23.996Z,6.10
2017-12-05T07:25:51.448Z,6.20
2017-12-05T07:28:18.952Z,6.20
2017-12-05T07:30:46.418Z,6.20
2017-12-05T07:33:13.878Z,6.20
2017-12-05T07:35:41.340Z,6.30
2017-12-05T07:38:08.796Z,6.30
2017-12-05T07:40:36.255Z,6.20
2017-12-05T07:43:03.800Z,6.30
2017-12-05T07:45:31.342Z,6.30
2017-12-05T07:47:58.880Z,6.30
2017-12-05T07:50:26.436Z,6.40
2017-12-05T07:52:53.972Z,6.40
2017-12-05T07:55:21.450Z,6.40
2017-12-05T07:57:48.968Z,6.40
2017-12-05T08:00:16.424Z,6.50
2017-12-05T08:02:44.644Z,6.50
2017-12-05T08:05:12.108Z,6.40
2017-12-05T08:07:40.340Z,6.50
2017-12-05T08:10:07.799Z,6.50
2017-12-05T08:12:35.344Z,6.60
2017-12-05T08:15:02.795Z,6.50
2017-12-05T08:17:31.028Z,6.50
2017-12-05T08:19:58.475Z,6.40
2017-12-05T08:22:25.948Z,6.40
2017-12-05T08:24:54.163Z,6.50
2017-12-05T08:27:21.613Z,6.40
2017-12-05T08:29:49.071Z,6.40
2017-12-05T08:32:16.516Z,6.40
2017-12-05T08:34:44.213Z,6.50
2017-12-05T08:37:11.663Z,6.40
2017-12-05T08:39:39.130Z,6.50
2017-12-05T08:42:06.685Z,6.50
2017-12-05T08:44:34.135Z,6.50
2017-12-05T08:47:02.361Z,6.50
2017-12-05T08:49:30.580Z,6.50
2017-12-05T08:51:58.037Z,6.50
2017-12-05T08:54:25.529Z,6.50
2017-12-05T08:56:53.071Z,6.50
2017-12-05T08:59:20.545Z,6.60
2017-12-05T09:01:48.775Z,6.50
2017-12-05T09:04:16.232Z,6.50
2017-12-05T09:06:44.476Z,6.60
2017-12-05T09:09:12.017Z,6.60
2017-12-05T09:11:39.493Z,6.60
2017-12-05T09:14:06.945Z,6.70
2017-12-05T09:16:34.408Z,6.70
2017-12-05T09:19:01.860Z,6.70
2017-12-05T09:21:29.316Z,6.70
2017-12-05T09:23:56.770Z,6.80
2017-12-05T09:26:24.233Z,6.80
2017-12-05T09:28:52.443Z,6.90
2017-12-05T09:31:20.011Z,6.90
2017-12-05T09:33:47.552Z,6.90
2017-12-05T09:36:15.009Z,7.00
2017-12-05T09:38:43.256Z,7.00
2017-12-05T09:41:10.711Z,6.90
2017-12-05T09:43:38.932Z,7.00
2017-12-05T09:46:06.392Z,7.00
2017-12-05T09:48:33.867Z,7.00
2017-12-05T09:51:01.316Z,7.00
2017-12-05T09:53:28.829Z,7.00
2017-12-05T09:55:56.285Z,7.00
2017-12-05T09:58:24.501Z,7.00
2017-12-05T10:00:52.024Z,7.00
2017-12-05T10:03:19.491Z,7.00
2017-12-05T10:05:46.948Z,7.00
2017-12-05T10:08:14.491Z,7.00
2017-12-05T10:10:41.991Z,7.00
2017-12-05T10:13:09.440Z,6.90
2017-12-05T10:15:36.924Z,6.90
2017-12-05T10:18:04.376Z,7.00
2017-12-05T10:20:32.612Z,7.00
2017-12-05T10:23:00.063Z,7.00
2017-12-05T10:25:27.520Z,7.00
2017-12-05T10:27:55.739Z,7.10
2017-12-05T10:30:23.212Z,7.10
2017-12-05T10:32:50.664Z,7.10
2017-12-05T10:35:18.892Z,7.20
2017-12-05T10:37:46.373Z,7.20
2017-12-05T10:40:14.584Z,7.30
2017-12-05T10:42:42.048Z,7.30
2017-12-05T10:45:09.512Z,7.30
2017-12-05T10:47:37.728Z,7.40
2017-12-05T10:50:05.180Z,7.30
2017-12-05T10:52:32.732Z,7.30
2017-12-05T10:55:00.282Z,7.30
2017-12-05T10:57:27.745Z,7.30
2017-12-05T10:59:55.961Z,7.20
2017-12-05T11:02:23.427Z,7.10
2017-12-05T11:04:51.648Z,7.20
2017-12-05T11:07:19.095Z,7.20
2017-12-05T11:09:46.564Z,7.30
2017-12-05T11:12:14.108Z,7.30
2017-12-05T11:14:41.584Z,7.20
2017-12-05T11:17:09.029Z,7.20
2017-12-05T11:19:36.477Z,7.30
2017-12-05T11:22:03.932Z,7.30
2017-12-05T11:24:31.380Z,7.40
2017-12-05T11:26:58.843Z,7.40
2017-12-05T11:29:26.296Z,7.30
2017-12-05T11:31:53.752Z,7.40
2017-12-05T11:34:21.985Z,7.40
2017-12-05T11:36:49.448Z,7.40
2017-12-05T11:39:16.899Z,7.40
2017-12-05T11:41:45.120Z,7.40
2017-12-05T11:44:12.581Z,7.40
2017-12-05T11:46:40.032Z,7.40
2017-12-05T11:49:08.287Z,7.40
2017-12-05T11:51:35.752Z,7.40
2017-12-05T11:54:03.208Z,7.40
2017-12-05T11:56:30.684Z,7.40
2017-12-05T11:58:58.136Z,7.40
2017-12-05T12:01:25.593Z,7.40
2017-12-05T12:03:53.047Z,7.40
2017-12-05T12:06:21.284Z,7.40
2017-12-05T12:08:48.836Z,7.40
2017-12-05T12:11:16.295Z,7.40
2017-12-05T12:13:44.515Z,7.40
2017-12-05T12:16:11.972Z,7.40
2017-12-05T12:18:39.434Z,7.50
2017-12-05T12:21:07.655Z,7.40
2017-12-05T12:23:35.104Z,7.40
2017-12-05T12:26:02.563Z,7.40
2017-12-05T12:28:30.108Z,7.50
2017-12-05T12:30:57.568Z,7.50
2017-12-05T12:33:25.788Z,7.30
2017-12-05T12:35:53.248Z,7.30
2017-12-05T12:38:20.788Z,7.30
2017-12-05T12:40:48.252Z,7.30
2017-12-05T12:43:16.464Z,7.30
2017-12-05T12:45:43.924Z,7.30
2017-12-05T12:48:11.380Z,7.40
2017-12-05T12:50:39.606Z,7.50
2017-12-05T12:53:07.056Z,7.40
2017-12-05T12:55:34.572Z,7.50
2017-12-05T12:58:02.012Z,7.40
2017-12-05T13:00:29.472Z,7.50
2017-12-05T13:02:57.046Z,7.50
2017-12-05T13:05:24.593Z,7.60
2017-12-05T13:07:52.131Z,7.50
2017-12-05T13:10:19.600Z,7.50
2017-12-05T13:12:47.057Z,7.50
2017-12-05T13:15:14.564Z,7.50
2017-12-05T13:17:42.034Z,7.50
2017-12-05T13:20:09.543Z,7.50
2017-12-05T13:22:37.088Z,7.60
2017-12-05T13:25:04.556Z,7.60
2017-12-05T13:27:32.012Z,7.50
2017-12-05T13:29:59.464Z,7.50
2017-12-05T13:32:26.926Z,7.50
2017-12-05T13:34:54.371Z,7.60
2017-12-05T13:37:21.835Z,7.50
2017-12-05T13:39:49.333Z,7.50
2017-12-05T13:42:16.795Z,7.60
2017-12-05T13:44:44.393Z,7.70
2017-12-05T13:47:11.843Z,7.80
2017-12-05T13:49:39.356Z,7.70
2017-12-05T13:52:07.584Z,7.60
2017-12-05T13:54:35.037Z,7.60
2017-12-05T13:57:02.485Z,7.60
2017-12-05T13:59:29.948Z,7.60
2017-12-05T14:01:58.172Z,7.60
2017-12-05T14:04:25.620Z,7.50
2017-12-05T14:06:53.076Z,7.50
2017-12-05T14:09:20.616Z,7.60
2017-12-05T14:11:48.072Z,7.60
2017-12-05T14:14:16.297Z,7.50
2017-12-05T14:16:43.772Z,7.50
2017-12-05T14:19:11.992Z,7.50
2017-12-05T14:21:39.444Z,7.50
2017-12-05T14:24:06.899Z,7.60
2017-12-05T14:26:34.360Z,7.60
2017-12-05T14:29:02.597Z,7.70
2017-12-05T14:31:30.052Z,7.60
2017-12-05T14:33:58.280Z,7.60
2017-12-05T14:36:25.744Z,7.60
2017-12-05T14:38:53.240Z,7.70
2017-12-05T14:41:20.688Z,7.60
2017-12-05T14:43:48.144Z,7.60
2017-12-05T14:46:15.613Z,7.70
2017-12-05T14:48:43.076Z,7.60
2017-12-05T14:51:11.297Z,7.50
2017-12-05T14:53:38.752Z,7.50
2017-12-05T14:56:06.209Z,7.50
2017-12-05T14:58:34.444Z,7.50
2017-12-05T15:01:01.892Z,7.50
2017-12-05T15:03:29.445Z,7.50
2017-12-05T15:05:57.696Z,7.50
2017-12-05T15:08:25.174Z,7.50
2017-12-05T15:10:53.383Z,7.40
2017-12-05T15:13:20.859Z,7.40
2017-12-05T15:15:49.068Z,7.40
2017-12-05T15:18:16.527Z,7.40
2017-12-05T15:20:44.086Z,7.30
2017-12-05T15:23:11.627Z,7.40
2017-12-05T15:25:39.180Z,7.40
2017-12-05T15:28:07.413Z,7.40
2017-12-05T15:30:34.876Z,7.30
2017-12-05T15:33:02.340Z,7.40
2017-12-05T15:35:30.575Z,7.40
2017-12-05T15:37:58.130Z,7.40
2017-12-05T15:40:26.344Z,7.40
2017-12-05T15:42:53.800Z,7.40
2017-12-05T15:45:21.268Z,7.40
2017-12-05T15:47:48.724Z,7.30
2017-12-05T15:50:16.940Z,7.40
2017-12-05T15:52:44.404Z,7.30
2017-12-05T15:55:11.954Z,7.30
2017-12-05T15:57:39.431Z,7.30
2017-12-05T16:00:06.884Z,7.30
2017-12-05T16:02:34.349Z,7.30
2017-12-05T16:05:01.821Z,7.20
2017-12-05T16:07:29.364Z,7.30
2017-12-05T16:09:56.904Z,7.30
2017-12-05T16:12:24.448Z,7.30
2017-12-05T16:14:51.896Z,7.30
2017-12-05T16:17:20.153Z,7.30
2017-12-05T16:19:47.613Z,7.20
2017-12-05T16:22:15.832Z,7.30
2017-12-05T16:24:43.276Z,7.20
2017-12-05T16:27:10.741Z,7.30
2017-12-05T16:29:38.956Z,7.30
2017-12-05T16:32:06.411Z,7.30
2017-12-05T16:34:33.868Z,7.30
2017-12-05T16:37:01.339Z,7.30
2017-12-05T16:39:29.587Z,7.30
2017-12-05T16:41:57.826Z,7.20
2017-12-05T16:44:25.382Z,7.20
2017-12-05T16:46:53.028Z,7.30
2017-12-05T16:49:20.479Z,7.30
2017-12-05T16:51:48.697Z,7.30
2017-12-05T16:54:16.168Z,7.30
2017-12-05T16:56:43.636Z,7.30
2017-12-05T16:59:11.102Z,7.30
2017-12-05T17:01:38.564Z,7.30
2017-12-05T17:04:06.813Z,7.30
2017-12-05T17:06:34.288Z,7.30
2017-12-05T17:09:01.748Z,7.30
2017-12-05T17:11:30.019Z,7.30
2017-12-05T17:13:58.239Z,7.30
2017-12-05T17:16:25.908Z,7.30
2017-12-05T17:18:53.369Z,7.20
2017-12-05T17:21:21.597Z,7.30
2017-12-05T17:23:49.055Z,7.30
2017-12-05T17:26:17.326Z,7.30
2017-12-05T17:28:45.541Z,7.30
2017-12-05T17:31:12.996Z,7.30
2017-12-05T17:33:40.457Z,7.30
2017-12-05T17:36:08.684Z,7.30
2017-12-05T17:38:36.917Z,7.30
2017-12-05T17:41:04.380Z,7.30
2017-12-05T17:43:31.858Z,7.30
2017-12-05T17:45:59.316Z,7.30
2017-12-05T17:48:26.768Z,7.30
2017-12-05T17:50:54.220Z,7.30
2017-12-05T17:53:21.689Z,7.30
2017-12-05T17:55:49.140Z,7.30
2017-12-05T17:58:16.602Z,7.30
2017-12-05T18:00:44.094Z,7.30
2017-12-05T18:03:11.589Z,7.30
2017-12-05T18:05:39.032Z,7.30
2017-12-05T18:08:07.301Z,7.30
2017-12-05T18:10:35.523Z,7.30
2017-12-05T18:13:03.000Z,7.30
2017-12-05T18:15:31.216Z,7.30
2017-12-05T18:17:58.675Z,7.30
2017-12-05T18:20:26.152Z,7.40
2017-12-05T18:22:54.388Z,7.40
2017-12-05T18:25:21.840Z,7.30
2017-12-05T18:27:50.060Z,7.40
2017-12-05T18:30:17.532Z,7.30
2017-12-05T18:32:45.076Z,7.40
2017-12-05T18:35:12.619Z,7.30
2017-12-05T18:37:40.859Z,7.30
2017-12-05T18:40:08.311Z,7.30
2017-12-05T18:42:35.761Z,7.30
2017-12-05T18:45:03.993Z,7.30
2017-12-05T18:47:31.468Z,7.30
2017-12-05T18:49:59.724Z,7.40
2017-12-05T18:52:27.961Z,7.40
2017-12-05T18:54:55.420Z,7.40
2017-12-05T18:57:23.072Z,7.30
2017-12-05T18:59:50.524Z,7.30
2017-12-05T19:02:18.741Z,7.30
2017-12-05T19:04:46.200Z,7.30
2017-12-05T19:07:13.664Z,7.30
2017-12-05T19:09:41.117Z,7.40
2017-12-05T19:12:09.337Z,7.30
2017-12-05T19:14:36.900Z,7.30
2017-12-05T19:17:04.360Z,7.30
2017-12-05T19:19:32.576Z,7.40
2017-12-05T19:22:00.049Z,7.40
2017-12-05T19:24:28.264Z,7.40
2017-12-05T19:26:55.722Z,7.40
2017-12-05T19:29:23.286Z,7.40
2017-12-05T19:31:50.740Z,7.40
2017-12-05T19:34:18.992Z,7.40
2017-12-05T19:36:47.272Z,7.40
2017-12-05T19:39:15.488Z,7.40
2017-12-05T19:41:42.944Z,7.30
2017-12-05T19:44:10.400Z,7.40
2017-12-05T19:46:38.615Z,7.30
2017-12-05T19:49:06.088Z,7.30
2017-12-05T19:51:33.636Z,7.30
2017-12-05T19:54:01.092Z,7.30
2017-12-05T19:56:29.332Z,7.30
2017-12-05T19:58:56.887Z,7.30
2017-12-05T20:01:25.113Z,7.30
2017-12-05T20:03:52.589Z,7.30
2017-12-05T20:06:20.046Z,7.30
2017-12-05T20:08:48.287Z,7.20
2017-12-05T20:11:16.505Z,7.30
2017-12-05T20:13:43.961Z,7.30
2017-12-05T20:16:11.411Z,7.30
2017-12-05T20:18:38.969Z,7.30
2017-12-05T20:21:06.517Z,7.40
2017-12-05T20:23:34.067Z,7.30
2017-12-05T20:26:02.299Z,7.40
2017-12-05T20:28:29.867Z,7.40
2017-12-05T20:30:57.307Z,7.40
2017-12-05T20:33:25.577Z,7.40
2017-12-05T20:35:53.805Z,7.40
2017-12-05T20:38:21.266Z,7.30
2017-12-05T20:40:48.728Z,7.40
2017-12-05T20:43:16.948Z,7.40
2017-12-05T20:45:45.180Z,7.30
2017-12-05T20:48:12.668Z,7.30
2017-12-05T20:50:40.132Z,7.30
2017-12-05T20:53:07.751Z,7.40
2017-12-05T20:55:35.213Z,7.40
2017-12-05T20:58:03.456Z,7.40
2017-12-05T21:00:31.732Z,7.40
2017-12-05T21:02:59.971Z,7.40
2017-12-05T21:05:27.440Z,7.40
2017-12-05T21:07:54.895Z,7.40
2017-12-05T21:10:22.352Z,7.40
2017-12-05T21:12:52.161Z,7.30
2017-12-05T21:15:19.612Z,7.30
2017-12-05T21:17:47.104Z,7.30
2017-12-05T21:20:14.623Z,7.30
2017-12-05T21:22:42.164Z,7.30
2017-12-05T21:25:09.704Z,7.30
2017-12-05T21:27:37.184Z,7.30
2017-12-05T21:30:04.628Z,7.30
2017-12-05T21:32:32.076Z,7.30
2017-12-05T21:34:59.552Z,7.30
2017-12-05T21:37:27.001Z,7.30
2017-12-05T21:39:54.458Z,7.30
2017-12-05T21:42:22.693Z,7.30
2017-12-05T21:44:50.156Z,7.30
2017-12-05T21:47:17.703Z,7.30
2017-12-05T21:49:45.252Z,7.30
2017-12-05T21:52:13.467Z,7.20
2017-12-05T21:54:40.937Z,7.20
2017-12-05T21:57:08.414Z,7.30
2017-12-05T21:59:36.644Z,7.30
2017-12-05T22:02:04.109Z,7.30
2017-12-05T22:04:32.340Z,7.30
2017-12-05T22:06:59.892Z,7.30
2017-12-05T22:09:27.435Z,7.30
2017-12-05T22:11:55.676Z,7.40
2017-12-05T22:14:23.151Z,7.40
2017-12-05T22:16:51.420Z,7.30
2017-12-05T22:19:19.808Z,7.40
2017-12-05T22:21:47.275Z,7.30
2017-12-05T22:24:14.752Z,7.40
2017-12-05T22:26:42.972Z,7.40
2017-12-05T22:29:10.424Z,7.30
2017-12-05T22:31:37.888Z,7.40
2017-12-05T22:34:05.343Z,7.40
2017-12-05T22:36:33.588Z,7.30
2017-12-05T22:39:01.040Z,7.30
2017-12-05T22:41:29.264Z,7.30
2017-12-05T22:43:56.824Z,7.30
2017-12-05T22:46:24.297Z,7.30
2017-12-05T22:48:52.536Z,7.30
2017-12-05T22:51:19.995Z,7.30
2017-12-05T22:53:48.240Z,7.30
2017-12-05T22:56:16.479Z,7.20
2017-12-05T22:58:43.936Z,7.20
2017-12-05T23:01:11.480Z,7.30
2017-12-05T23:03:38.947Z,7.30
2017-12-05T23:06:07.164Z,7.30
2017-12-05T23:08:34.620Z,7.20
2017-12-05T23:11:02.098Z,7.20
2017-12-05T23:13:29.563Z,7.30
2017-12-05T23:15:57.033Z,7.20
2017-12-05T23:18:24.587Z,7.30
2017-12-05T23:20:52.137Z,7.20
2017-12-05T23:23:19.593Z,7.20
2017-12-05T23:25:47.836Z,7.30
2017-12-05T23:28:15.300Z,7.30
2017-12-05T23:30:43.516Z,7.30
2017-12-05T23:33:10.995Z,7.30
2017-12-05T23:35:39.216Z,7.30
2017-12-05T23:38:06.693Z,7.30
2017-12-05T23:40:34.923Z,7.20
2017-12-05T23:43:02.385Z,7.20
2017-12-05T23:45:30.616Z,7.20
2017-12-05T23:47:58.063Z,7.20
2017-12-05T23:50:25.523Z,7.30
2017-12-05T23:52:52.980Z,7.30
2017-12-05T23:58:11.788Z,7.30
